Map

Track Data

SID SEASON NUMBER BASIN SUBBASIN NAME ISO_TIME NATURE LAT LON WMO_WIND WMO_PRES WMO_AGENCY TRACK_TYPE DIST2LAND LANDFALL IFLAG USA_AGENCY USA_ATCF_ID USA_LAT USA_LON USA_RECORD USA_STATUS USA_WIND USA_PRES USA_SSHS USA_R34_NE USA_R34_SE USA_R34_SW USA_R34_NW USA_R50_NE USA_R50_SE USA_R50_SW USA_R50_NW USA_R64_NE USA_R64_SE USA_R64_SW USA_R64_NW USA_POCI USA_ROCI USA_RMW USA_EYE TOKYO_LAT TOKYO_LON TOKYO_GRADE TOKYO_WIND TOKYO_PRES TOKYO_R50_DIR TOKYO_R50_LONG TOKYO_R50_SHORT TOKYO_R30_DIR TOKYO_R30_LONG TOKYO_R30_SHORT TOKYO_LAND CMA_LAT CMA_LON CMA_CAT CMA_WIND CMA_PRES HKO_LAT HKO_LON HKO_CAT HKO_WIND HKO_PRES NEWDELHI_LAT NEWDELHI_LON NEWDELHI_GRADE NEWDELHI_WIND NEWDELHI_PRES NEWDELHI_CI NEWDELHI_DP NEWDELHI_POCI REUNION_LAT REUNION_LON REUNION_TYPE REUNION_WIND REUNION_PRES REUNION_TNUM REUNION_CI REUNION_RMW REUNION_R34_NE REUNION_R34_SE REUNION_R34_SW REUNION_R34_NW REUNION_R50_NE REUNION_R50_SE REUNION_R50_SW REUNION_R50_NW REUNION_R64_NE REUNION_R64_SE REUNION_R64_SW REUNION_R64_NW BOM_LAT BOM_LON BOM_TYPE BOM_WIND BOM_PRES BOM_TNUM BOM_CI BOM_RMW BOM_R34_NE BOM_R34_SE BOM_R34_SW BOM_R34_NW BOM_R50_NE BOM_R50_SE BOM_R50_SW BOM_R50_NW BOM_R64_NE BOM_R64_SE BOM_R64_SW BOM_R64_NW BOM_ROCI BOM_POCI BOM_EYE BOM_POS_METHOD BOM_PRES_METHOD NADI_LAT NADI_LON NADI_CAT NADI_WIND NADI_PRES WELLINGTON_LAT WELLINGTON_LON WELLINGTON_WIND WELLINGTON_PRES DS824_LAT DS824_LON DS824_STAGE DS824_WIND DS824_PRES TD9636_LAT TD9636_LON TD9636_STAGE TD9636_WIND TD9636_PRES TD9635_LAT TD9635_LON TD9635_WIND TD9635_PRES TD9635_ROCI NEUMANN_LAT NEUMANN_LON NEUMANN_CLASS NEUMANN_WIND NEUMANN_PRES MLC_LAT MLC_LON MLC_CLASS MLC_WIND MLC_PRES USA_GUST BOM_GUST BOM_GUST_PER REUNION_GUST REUNION_GUST_PER USA_SEAHGT USA_SEARAD_NE USA_SEARAD_SE USA_SEARAD_SW USA_SEARAD_NW STORM_SPEED STORM_DIR
1958251N20090 1958 80 NI BB NOT_NAMED 1958-09-07 18:00:00 TS 20.3000 89.8000 main 161 158 O________O____ jtwc_io IO071958 20.3000 89.8000 -1 20.3000 89.8000 TC 2 301
1958251N20090 1958 80 NI BB NOT_NAMED 1958-09-07 21:00:00 TS 20.3499 89.7125 main 158 140 P________P____ IO071958 20.3499 89.7125 -1 20.3499 89.7125 TC 3 290
1958251N20090 1958 80 NI BB NOT_NAMED 1958-09-08 00:00:00 TS 20.4000 89.5000 main 140 134 O________O____ jtwc_io IO071958 20.4000 89.5000 -1 20.4000 89.5000 TC 25 6 279
1958251N20090 1958 80 NI BB NOT_NAMED 1958-09-08 03:00:00 TS 20.4444 89.0778 main 134 123 P________PO___ IO071958 20.4500 89.0750 -1 20.4500 89.0750 TC 25 20.4000 89.1000 1 10 276
1958251N20090 1958 80 NI BB NOT_NAMED 1958-09-08 06:00:00 TS 20.4940 88.4867 main 123 96 O________OP___ jtwc_io IO071958 20.5000 88.5000 -1 20.5000 88.5000 TC 25 20.4698 88.4333 1 12 275
1958251N20090 1958 80 NI BB NOT_NAMED 1958-09-08 09:00:00 TS 20.5421 87.8371 main 86 23 P________PP___ IO071958 20.5427 87.8574 -1 20.5427 87.8574 TC 25 20.5405 87.7830 1 12 275
1958251N20090 1958 80 NI BB NOT_NAMED 1958-09-08 12:00:00 TS 20.6053 87.1887 main 23 0 O________OP___ jtwc_io IO071958 20.6000 87.2000 -1 20.6000 87.2000 TC 25 20.6159 87.1662 1 12 278
1958251N20090 1958 80 NI BB NOT_NAMED 1958-09-08 15:00:00 TS 20.6948 86.6183 main 0 0 P________PO___ IO071958 20.6922 86.6275 -1 20.6922 86.6275 TC 25 20.7000 86.6000 1 10 281
1958251N20090 1958 80 NI BB NOT_NAMED 1958-09-08 18:00:00 TS 20.7984 86.0974 main 0 0 O________OP___ jtwc_io IO071958 20.8000 86.1000 -1 20.8000 86.1000 TC 25 20.7952 86.0923 1 10 282
1958251N20090 1958 80 NI BB NOT_NAMED 1958-09-08 21:00:00 TS 20.8990 85.6048 main 0 0 P________PP___ IO071958 20.8997 85.5999 -1 20.8997 85.5999 TC 25 20.8977 85.6147 1 9 282
1958251N20090 1958 80 NI BB NOT_NAMED 1958-09-09 00:00:00 TS 21.0005 85.1099 main 0 0 O________OP___ jtwc_io IO071958 21.0000 85.1000 -1 21.0000 85.1000 TC 25 21.0014 85.1298 1 10 282
1958251N20090 1958 80 NI BB NOT_NAMED 1958-09-09 03:00:00 TS 21.1047 84.5916 main 0 0 P________PO___ IO071958 21.1071 84.5875 -1 21.1071 84.5875 TC 25 21.1000 84.6000 1 11 280
1958251N20090 1958 80 NI BB NOT_NAMED 1958-09-09 06:00:00 TS 21.1916 83.9849 main 0 0 O________OP___ jtwc_io IO071958 21.2000 84.0000 -1 21.2000 84.0000 TC 25 21.1747 83.9546 1 13 277
1958251N20090 1958 80 NI BB NOT_NAMED 1958-09-09 09:00:00 TS 21.2480 83.2597 main 0 0 P________PP___ IO071958 21.2503 83.2573 -1 21.2503 83.2573 TC 25 21.2434 83.2644 1 14 275
1958251N20090 1958 80 NI BB NOT_NAMED 1958-09-09 12:00:00 TS 21.3051 82.5223 main 0 0 O________OP___ jtwc_io IO071958 21.3000 82.5000 -1 21.3000 82.5000 TC 25 21.3153 82.5670 1 13 276
1958251N20090 1958 80 NI BB NOT_NAMED 1958-09-09 15:00:00 TS 21.3948 81.8750 main 0 0 P________PO___ IO071958 21.3922 81.8625 -1 21.3922 81.8625 TC 25 21.4000 81.9000 1 11 280
1958251N20090 1958 80 NI BB NOT_NAMED 1958-09-09 18:00:00 TS 21.4950 81.3058 main 0 0 O________OP___ jtwc_io IO071958 21.5000 81.3000 -1 21.5000 81.3000 TC 25 21.4850 81.3174 1 10 280
1958251N20090 1958 80 NI BB NOT_NAMED 1958-09-09 21:00:00 TS 21.5808 80.7893 main 0 0 P________PP___ IO071958 21.5771 80.7996 -1 21.5771 80.7996 TC 25 21.5884 80.7687 1 10 283
1958251N20090 1958 80 NI BB NOT_NAMED 1958-09-10 00:00:00 TS 21.7075 80.2786 main 0 0 O________OP___ jtwc_io IO071958 21.7000 80.3000 -1 21.7000 80.3000 TC 25 21.7226 80.2358 1 11 289
1958251N20090 1958 80 NI BB NOT_NAMED 1958-09-10 03:00:00 TS 21.9183 79.7051 main 0 0 P________PO___ IO071958 21.9275 79.7076 -1 21.9275 79.7076 TC 25 21.9000 79.7000 1 12 293
1958251N20090 1958 80 NI BB NOT_NAMED 1958-09-10 06:00:00 TS 22.1774 79.1002 main 0 0 O________OP___ jtwc_io IO071958 22.2000 79.1000 -1 22.2000 79.1000 TC 25 22.1321 79.1004 1 12 295
1958251N20090 1958 80 NI BB NOT_NAMED 1958-09-10 09:00:00 TS 22.4300 78.5276 main 0 0 P________PP___ IO071958 22.4422 78.5422 -1 22.4422 78.5422 TC 25 22.4055 78.4985 1 12 297
1958251N20090 1958 80 NI AS NOT_NAMED 1958-09-10 12:00:00 TS 22.7003 77.9741 main 0 0 O________OP___ jtwc_io IO071958 22.7000 78.0000 -1 22.7000 78.0000 TC 25 22.7010 77.9222 1 12 299
1958251N20090 1958 80 NI AS NOT_NAMED 1958-09-10 15:00:00 TS 23.0001 77.4134 main 0 0 P________PO___ IO071958 23.0001 77.4201 -1 23.0001 77.4201 TC 25 23.0000 77.4000 1 11 301
1958251N20090 1958 80 NI AS NOT_NAMED 1958-09-10 18:00:00 TS 23.2914 76.9168 main 0 0 O________OP___ jtwc_io IO071958 23.3000 76.9000 -1 23.3000 76.9000 TC 25 23.2741 76.9505 1 10 304
1958251N20090 1958 80 NI AS NOT_NAMED 1958-09-10 21:00:00 TS 23.5495 76.5278 main 0 0 P________PP___ IO071958 23.5497 76.5121 -1 23.5497 76.5121 TC 25 23.5490 76.5591 1 8 308
1958251N20090 1958 80 NI AS NOT_NAMED 1958-09-11 00:00:00 TS 23.8081 76.2044 main 0 0 O________OP___ jtwc_io IO071958 23.8000 76.2000 -1 23.8000 76.2000 TC 25 23.8244 76.2132 1 8 313
1958251N20090 1958 80 NI AS NOT_NAMED 1958-09-11 03:00:00 TS 24.1000 75.8900 main 0 0 P________PO___ IO071958 24.0999 75.8850 -1 24.0999 75.8850 TC 25 24.1000 75.9000 1 8 317
1958251N20090 1958 80 NI AS NOT_NAMED 1958-09-11 06:00:00 TS 24.4009 75.6054 main 0 0 O________OP___ jtwc_io IO071958 24.4000 75.6000 -1 24.4000 75.6000 TC 25 24.4027 75.6162 1 8 320
1958251N20090 1958 80 NI AS NOT_NAMED 1958-09-11 09:00:00 TS 24.6720 75.3572 main 0 0 P________PP___ IO071958 24.6573 75.3572 -1 24.6573 75.3572 TC 25 24.7014 75.3571 1 7 319
1958251N20090 1958 80 NI AS NOT_NAMED 1958-09-11 12:00:00 TS 24.9248 75.0982 main 0 0 O________OP___ jtwc_io IO071958 24.9000 75.1000 -1 24.9000 75.1000 TC 25 24.9745 75.0945 1 7 314
1958251N20090 1958 80 NI AS NOT_NAMED 1958-09-11 15:00:00 TS 25.1816 74.7817 main 0 0 P________PO___ IO071958 25.1725 74.7726 -1 25.1725 74.7726 TC 25 25.2000 74.8000 1 8 307
1958251N20090 1958 80 NI AS NOT_NAMED 1958-09-11 18:00:00 TS 25.3916 74.4092 main 0 0 O________OP___ jtwc_io IO071958 25.4000 74.4000 -1 25.4000 74.4000 TC 25 25.3749 74.4277 1 8 296
1958251N20090 1958 80 NI AS NOT_NAMED 1958-09-11 21:00:00 TS 25.5242 74.0124 main 0 0 P________PP___ IO071958 25.5374 74.0074 -1 25.5374 74.0074 TC 25 25.4978 74.0225 1 8 285
1958251N20090 1958 80 NI AS NOT_NAMED 1958-09-12 00:00:00 TS 25.5906 73.6020 main 0 0 O________OP___ jtwc_io IO071958 25.6000 73.6000 -1 25.6000 73.6000 TC 25 25.5718 73.6060 1 7 277
1958251N20090 1958 80 NI AS NOT_NAMED 1958-09-12 03:00:00 TS 25.6150 73.1949 main 0 0 P________PO___ IO071958 25.6224 73.1924 -1 25.6224 73.1924 TC 25 25.6000 73.2000 1 7 271
1958251N20090 1958 80 NI AS NOT_NAMED 1958-09-12 06:00:00 TS 25.6017 72.8090 main 0 0 O________OP___ jtwc_io IO071958 25.6000 72.8000 -1 25.6000 72.8000 TC 25 25.6050 72.8271 1 7 266
1958251N20090 1958 80 NI AS NOT_NAMED 1958-09-12 09:00:00 TS 25.5657 72.4466 main 0 0 P________PP___ IO071958 25.5649 72.4350 -1 25.5649 72.4350 TC 25 25.5671 72.4696 1 6 261
1958251N20090 1958 80 NI AS NOT_NAMED 1958-09-12 12:00:00 TS 25.4986 72.1091 main 0 0 O________OP___ jtwc_io IO071958 25.5000 72.1000 -1 25.5000 72.1000 TC 25 25.4957 72.1273 1 6 255
1958251N20090 1958 80 NI AS NOT_NAMED 1958-09-12 15:00:00 TS 25.4049 71.7950 main 0 0 P________PO___ IO071958 25.4074 71.7925 -1 25.4074 71.7925 TC 25 25.4000 71.8000 1 6 250
1958251N20090 1958 80 NI AS NOT_NAMED 1958-09-12 18:00:00 TS 25.2954 71.4947 main 0 0 O________OP___ jtwc_io IO071958 25.3000 71.5000 -1 25.3000 71.5000 TC 25 25.2884 71.4868 1 6 248
1958251N20090 1958 80 NI AS NOT_NAMED 1958-09-12 21:00:00 TS 25.1838 71.1948 main 0 0 P________PP___ IO071958 25.1976 71.2024 -1 25.1976 71.2024 TC 25 25.1654 71.1847 1 6 247
1958251N20090 1958 80 NI AS NOT_NAMED 1958-09-13 00:00:00 TS 25.0674 70.8951 main 0 0 O________OP___ jtwc_io IO071958 25.1000 70.9000 -1 25.1000 70.9000 TC 25 25.0348 70.8903 1 6 242
1958251N20090 1958 80 NI AS NOT_NAMED 1958-09-13 03:00:00 NR 24.9000 70.6000 main 0 __________O___ IO071958 -1 TC 24.9000 70.6000 1 6 238

About IBTrACS Database

This database is a web-friendly format of International Best Track Archive for Climate Stewardship (IBTrACS), a global best track data archive curated by NOAA dating back to 1842.

Updated: 2021-12-03